Time;durP1;ratioP1;P1;durP2;ratioP2;P2;SDS_P1;SDS_P2;PMS_P1;PMS_P2;Temp;Humidity;BMP_temperature;BMP_pressure;BME280_temperature;BME280_humidity;BME280_pressure;Samples;Min_cycle;Max_cycle;Signal;HPM_P1;HPM_P2
2024/01/31 00:01:37;;;;;;;1999.90;999.90;;;8.30;99.90;;;;;;5013955;28;20535;-69
2024/01/31 00:04:04;;;;;;;1999.90;999.90;;;8.20;99.90;;;;;;5020097;28;20252;-70
2024/01/31 00:06:30;;;;;;;1999.90;999.90;;;8.00;99.90;;;;;;5019523;28;20405;-70
2024/01/31 00:08:56;;;;;;;1999.90;999.90;;;8.30;99.90;;;;;;5013952;28;20473;-69
2024/01/31 00:11:25;;;;;;;1999.90;999.90;;;8.20;99.90;;;;;;5013956;28;20433;-69
2024/01/31 00:13:51;;;;;;;1999.90;999.90;;;8.30;99.90;;;;;;5013908;28;20447;-69
2024/01/31 00:16:17;;;;;;;1999.90;999.90;;;8.60;99.90;;;;;;5013885;28;20413;-69
2024/01/31 00:18:42;;;;;;;1999.90;999.90;;;8.40;99.90;;;;;;5013227;28;20405;-69
2024/01/31 00:21:08;;;;;;;1999.90;999.90;;;9.00;99.90;;;;;;5033413;28;20209;-69
2024/01/31 00:23:33;;;;;;;1999.90;999.90;;;8.20;99.90;;;;;;5040624;28;20169;-69
2024/01/31 00:25:59;;;;;;;1999.90;999.90;;;8.50;99.90;;;;;;5040014;28;20174;-70
2024/01/31 00:28:25;;;;;;;1999.90;999.90;;;8.40;99.90;;;;;;5038377;28;20631;-70
2024/01/31 00:30:51;;;;;;;1999.90;999.90;;;8.50;99.90;;;;;;5038609;28;20189;-70
2024/01/31 00:33:16;;;;;;;1999.90;999.90;;;8.40;99.90;;;;;;5036271;28;20404;-70
2024/01/31 00:35:42;;;;;;;1999.90;999.90;;;8.20;99.90;;;;;;5035297;28;20169;-68
2024/01/31 00:38:07;;;;;;;1999.90;999.90;;;8.20;99.90;;;;;;5032606;28;20174;-69
2024/01/31 00:40:33;;;;;;;1999.90;999.90;;;8.10;99.90;;;;;;5033168;28;20165;-69
2024/01/31 00:42:59;;;;;;;1999.90;999.90;;;8.20;99.90;;;;;;5033025;28;20201;-69
2024/01/31 00:45:24;;;;;;;1999.90;999.90;;;8.40;99.90;;;;;;5033053;28;20695;-69
2024/01/31 00:47:50;;;;;;;1999.90;999.90;;;8.30;99.90;;;;;;5032460;28;20165;-68
2024/01/31 00:50:15;;;;;;;1999.90;999.90;;;8.10;99.90;;;;;;5033019;28;20173;-68
2024/01/31 00:52:41;;;;;;;1999.90;999.90;;;8.00;99.90;;;;;;5033017;28;20392;-69
2024/01/31 00:55:08;;;;;;;1999.90;999.90;;;8.20;99.90;;;;;;5032966;28;20169;-68
2024/01/31 00:57:33;;;;;;;1999.90;999.90;;;8.00;99.90;;;;;;5032296;28;20503;-69
2024/01/31 01:00:01;;;;;;;1999.90;999.90;;;8.10;99.90;;;;;;5032747;28;20554;-68
2024/01/31 01:02:27;;;;;;;1999.90;999.90;;;8.10;99.90;;;;;;5032590;28;20201;-69
2024/01/31 01:04:54;;;;;;;1999.90;999.90;;;8.40;99.90;;;;;;5032726;28;20896;-69
2024/01/31 01:07:20;;;;;;;1999.90;999.90;;;8.00;1.00;;;;;;5031992;28;20647;-68
2024/01/31 01:09:45;;;;;;;1999.90;999.90;;;8.10;1.00;;;;;;5032695;28;20414;-69
2024/01/31 01:12:11;;;;;;;1999.90;999.90;;;8.00;1.00;;;;;;5032536;28;20419;-69
2024/01/31 01:14:37;;;;;;;1999.90;999.90;;;8.00;1.00;;;;;;5031612;28;20173;-69
2024/01/31 01:17:04;;;;;;;1999.90;999.90;;;7.80;1.00;;;;;;5031859;28;20672;-70
2024/01/31 01:19:29;;;;;;;1999.90;999.90;;;7.70;1.00;;;;;;5032556;28;20528;-68
2024/01/31 01:21:56;;;;;;;1999.90;999.90;;;8.10;1.00;;;;;;5032334;28;20448;-69
2024/01/31 01:24:22;;;;;;;1999.90;999.90;;;7.90;1.00;;;;;;5032472;28;20222;-68
2024/01/31 01:26:47;;;;;;;1999.90;999.90;;;8.00;1.00;;;;;;5031731;28;20395;-69
2024/01/31 01:29:13;;;;;;;1999.90;999.90;;;7.70;1.00;;;;;;5032222;28;20181;-69
2024/01/31 01:31:38;;;;;;;1999.90;999.90;;;7.70;1.00;;;;;;5032214;28;20200;-69
2024/01/31 01:34:04;;;;;;;1999.90;999.90;;;7.70;1.00;;;;;;5032202;28;20193;-69
2024/01/31 01:36:30;;;;;;;1999.90;999.90;;;7.60;1.00;;;;;;5031622;28;20573;-69
2024/01/31 01:38:55;;;;;;;1999.90;999.90;;;7.60;1.00;;;;;;5032061;28;20184;-68
2024/01/31 01:41:21;;;;;;;1999.90;999.90;;;7.90;1.00;;;;;;5031986;28;20200;-69
2024/01/31 01:43:47;;;;;;;1999.90;999.90;;;7.70;1.00;;;;;;5032004;28;20175;-69
2024/01/31 01:46:17;;;;;;;1999.90;999.90;;;8.00;1.00;;;;;;5031994;28;20188;-69
2024/01/31 01:48:43;;;;;;;1999.90;999.90;;;7.30;18.40;;;;;;5031330;28;20398;-70
2024/01/31 01:51:10;;;;;;;1999.90;999.90;;;7.80;31.40;;;;;;5031866;28;20424;-70
2024/01/31 01:53:36;;;;;;;1999.90;999.90;;;7.40;57.70;;;;;;5032015;28;20160;-69
2024/01/31 01:56:08;;;;;;;1999.90;999.90;;;8.10;72.90;;;;;;5031852;28;20411;-69
2024/01/31 01:58:35;;;;;;;1999.90;999.90;;;7.70;77.60;;;;;;5031165;28;20415;-69
2024/01/31 02:01:01;;;;;;;1999.90;999.90;;;8.20;86.70;;;;;;5031608;28;20463;-69
2024/01/31 02:03:29;;;;;;;1999.90;999.90;;;7.50;91.90;;;;;;5031902;28;20852;-69
2024/01/31 02:06:00;;;;;;;1999.90;999.90;;;7.60;99.90;;;;;;5031887;28;20277;-69
2024/01/31 02:08:27;;;;;;;1999.90;999.90;;;7.60;99.90;;;;;;5031193;28;20415;-70
2024/01/31 02:10:52;;;;;;;1999.90;999.90;;;7.30;99.90;;;;;;5033984;28;20532;-70
2024/01/31 02:13:18;;;;;;;1999.90;999.90;;;7.20;99.90;;;;;;5036600;28;21063;-69
2024/01/31 02:15:57;;;;;;;1999.90;999.90;;;8.20;99.90;;;;;;5036222;28;20225;-70
2024/01/31 02:18:25;;;;;;;1999.90;999.90;;;7.00;99.90;;;;;;5028956;28;20176;-70
2024/01/31 02:20:51;;;;;;;1999.90;999.90;;;7.20;99.90;;;;;;5013948;28;20557;-68
2024/01/31 02:23:17;;;;;;;1999.90;999.90;;;7.10;99.90;;;;;;5012085;28;20404;-69
2024/01/31 02:25:43;;;;;;;1999.90;999.90;;;7.10;99.90;;;;;;5014141;28;20203;-69
2024/01/31 02:28:09;;;;;;;1999.90;999.90;;;7.00;99.90;;;;;;5017670;28;20791;-69
2024/01/31 02:30:34;;;;;;;1999.90;999.90;;;7.00;99.90;;;;;;5018256;28;20161;-69
2024/01/31 02:33:00;;;;;;;1999.90;999.90;;;7.10;99.90;;;;;;5018225;28;20412;-69
2024/01/31 02:35:26;;;;;;;1999.90;999.90;;;7.50;99.90;;;;;;5018267;28;20527;-69
2024/01/31 02:37:52;;;;;;;1999.90;999.90;;;7.10;99.90;;;;;;5017409;28;20172;-69
2024/01/31 02:40:18;;;;;;;1999.90;999.90;;;7.00;99.90;;;;;;5018210;28;20408;-69
2024/01/31 02:42:44;;;;;;;1999.90;999.90;;;7.10;99.90;;;;;;5018121;28;20219;-69
2024/01/31 02:45:09;;;;;;;1999.90;999.90;;;7.10;99.90;;;;;;5018644;28;20535;-70
2024/01/31 02:47:36;;;;;;;1999.90;999.90;;;6.80;99.90;;;;;;5023426;28;20403;-70
2024/01/31 02:50:02;;;;;;;1999.90;999.90;;;7.10;99.90;;;;;;5018676;28;20408;-69
2024/01/31 02:52:28;;;;;;;1999.90;999.90;;;6.80;99.90;;;;;;5017943;28;20438;-69
2024/01/31 02:54:53;;;;;;;1999.90;999.90;;;7.10;99.90;;;;;;5018111;28;20415;-70
2024/01/31 02:57:19;;;;;;;1999.90;999.90;;;7.00;99.90;;;;;;5017344;28;20261;-70
2024/01/31 02:59:45;;;;;;;1999.90;999.90;;;7.30;99.90;;;;;;5018009;28;20165;-69
2024/01/31 03:02:10;;;;;;;1999.90;999.90;;;7.00;99.90;;;;;;5017709;28;20498;-69
2024/01/31 03:04:36;;;;;;;1999.90;999.90;;;7.00;99.90;;;;;;5018011;28;20199;-69
2024/01/31 03:07:02;;;;;;;1999.90;999.90;;;6.90;99.90;;;;;;5017638;28;20169;-70
2024/01/31 03:09:28;;;;;;;1999.90;999.90;;;6.80;99.90;;;;;;5023875;28;20205;-70
2024/01/31 03:11:54;;;;;;;1999.90;999.90;;;7.00;99.90;;;;;;5024151;28;20438;-70
2024/01/31 03:14:20;;;;;;;1999.90;999.90;;;7.50;99.90;;;;;;5024219;28;20260;-70
2024/01/31 03:16:45;;;;;;;1999.90;999.90;;;7.00;99.90;;;;;;5023625;28;20180;-71
2024/01/31 03:19:11;;;;;;;1999.90;999.90;;;7.80;99.90;;;;;;5021156;28;20177;-69
2024/01/31 03:21:37;;;;;;;1999.90;999.90;;;6.90;99.90;;;;;;5017641;28;20236;-69
2024/01/31 03:24:03;;;;;;;1999.90;999.90;;;7.00;99.90;;;;;;5017833;28;20173;-69
2024/01/31 03:26:28;;;;;;;1999.90;999.90;;;6.70;99.90;;;;;;5024386;28;20270;-70
2024/01/31 03:28:54;;;;;;;1999.90;999.90;;;6.90;99.90;;;;;;5023653;28;20490;-70
2024/01/31 03:31:20;;;;;;;1999.90;999.90;;;7.00;99.90;;;;;;5023659;28;20192;-70
2024/01/31 03:33:46;;;;;;;1999.90;999.90;;;6.90;99.90;;;;;;5024022;28;20243;-69
2024/01/31 03:36:12;;;;;;;1999.90;999.90;;;7.00;99.90;;;;;;5023202;28;20550;-70
2024/01/31 03:38:39;;;;;;;1999.90;999.90;;;7.00;99.90;;;;;;5018947;28;20518;-70
2024/01/31 03:41:06;;;;;;;1999.90;999.90;;;7.70;99.90;;;;;;5021366;28;20432;-69
2024/01/31 03:43:31;;;;;;;1999.90;999.90;;;6.70;99.90;;;;;;5017285;28;20404;-68
2024/01/31 03:45:57;;;;;;;1999.90;999.90;;;6.90;99.90;;;;;;5014477;28;20411;-68
2024/01/31 03:48:22;;;;;;;1999.90;999.90;;;6.90;99.90;;;;;;5013970;28;20200;-69
2024/01/31 03:50:48;;;;;;;1999.90;999.90;;;6.90;99.90;;;;;;5014469;28;20225;-69
2024/01/31 03:53:14;;;;;;;1999.90;999.90;;;7.00;99.90;;;;;;5014363;28;20628;-69
2024/01/31 03:55:40;;;;;;;1999.90;999.90;;;6.90;99.90;;;;;;5014329;28;20541;-70
2024/01/31 03:58:06;;;;;;;1999.90;999.90;;;6.70;99.90;;;;;;5013579;28;20635;-69
2024/01/31 04:00:31;;;;;;;1999.90;999.90;;;6.60;99.90;;;;;;5013958;28;20411;-69
2024/01/31 04:02:57;;;;;;;1999.90;999.90;;;7.00;99.90;;;;;;5014335;28;20201;-69
2024/01/31 04:05:22;;;;;;;1999.90;999.90;;;6.90;99.90;;;;;;5014134;28;20227;-69
2024/01/31 04:07:48;;;;;;;1999.90;999.90;;;7.10;99.90;;;;;;5013399;28;20173;-69
2024/01/31 04:10:14;;;;;;;1999.90;999.90;;;7.70;99.90;;;;;;5014006;28;20200;-68
2024/01/31 04:12:40;;;;;;;1999.90;999.90;;;6.80;99.90;;;;;;5013836;28;20219;-69
2024/01/31 04:15:06;;;;;;;1999.90;999.90;;;7.20;99.90;;;;;;5013982;28;20919;-69
2024/01/31 04:17:32;;;;;;;1999.90;999.90;;;6.90;99.90;;;;;;5013210;28;20174;-68
2024/01/31 04:19:57;;;;;;;1999.90;999.90;;;7.10;99.90;;;;;;5013902;28;20508;-70
2024/01/31 04:22:23;;;;;;;1999.90;999.90;;;7.20;99.90;;;;;;5013696;28;20280;-69
2024/01/31 04:24:48;;;;;;;1999.90;999.90;;;7.30;99.90;;;;;;5013488;28;20173;-69
2024/01/31 04:27:14;;;;;;;1999.90;999.90;;;7.30;99.90;;;;;;5013300;28;20173;-69
2024/01/31 04:29:40;;;;;;;1999.90;999.90;;;7.40;99.90;;;;;;5013772;28;20177;-71
2024/01/31 04:32:06;;;;;;;1999.90;999.90;;;7.30;99.90;;;;;;5013643;28;20203;-69
2024/01/31 04:34:34;;;;;;;1999.90;999.90;;;7.50;99.90;;;;;;5013555;28;20840;-68
2024/01/31 04:36:59;;;;;;;1999.90;999.90;;;7.50;99.90;;;;;;5012985;28;20401;-68
2024/01/31 04:39:25;;;;;;;1999.90;999.90;;;7.60;99.90;;;;;;5013460;28;20937;-69
2024/01/31 04:41:50;;;;;;;1999.90;999.90;;;7.60;99.90;;;;;;5013254;28;20291;-69
2024/01/31 04:44:16;;;;;;;1999.90;999.90;;;7.70;99.90;;;;;;5013360;28;20166;-69
2024/01/31 04:46:42;;;;;;;1999.90;999.90;;;7.80;99.90;;;;;;5012611;28;20169;-69
2024/01/31 04:49:07;;;;;;;1999.90;999.90;;;8.10;99.90;;;;;;5013208;28;20189;-69
2024/01/31 04:51:33;;;;;;;1999.90;999.90;;;8.90;99.90;;;;;;5013274;28;20544;-70
2024/01/31 04:53:58;;;;;;;1999.90;999.90;;;7.80;99.90;;;;;;5013235;28;20174;-70
2024/01/31 04:56:24;;;;;;;1999.90;999.90;;;7.80;99.90;;;;;;5013212;28;20177;-70
2024/01/31 04:58:50;;;;;;;1999.90;999.90;;;7.60;99.90;;;;;;5012754;28;20649;-70
2024/01/31 05:01:16;;;;;;;1999.90;999.90;;;7.70;99.90;;;;;;5012967;28;20579;-69
2024/01/31 05:03:42;;;;;;;1999.90;999.90;;;7.70;99.90;;;;;;5013000;28;20923;-69
2024/01/31 05:06:07;;;;;;;1999.90;999.90;;;8.10;99.90;;;;;;5013250;28;20169;-70
2024/01/31 05:08:33;;;;;;;1999.90;999.90;;;7.50;99.90;;;;;;5012663;28;20169;-69
2024/01/31 05:10:58;;;;;;;1999.90;999.90;;;7.30;99.90;;;;;;5012786;28;20206;-69
2024/01/31 05:13:25;;;;;;;1999.90;999.90;;;7.30;99.90;;;;;;5012864;28;20172;-70
2024/01/31 05:15:51;;;;;;;1999.90;999.90;;;7.10;99.90;;;;;;5013094;28;20661;-70
2024/01/31 05:18:17;;;;;;;1999.90;999.90;;;7.40;99.90;;;;;;5012232;28;20412;-69
2024/01/31 05:20:42;;;;;;;1999.90;999.90;;;7.30;99.90;;;;;;5012661;28;20416;-69
2024/01/31 05:23:08;;;;;;;1999.90;999.90;;;7.50;99.90;;;;;;5012546;28;21232;-69
2024/01/31 05:25:33;;;;;;;1999.90;999.90;;;7.70;99.90;;;;;;5012536;28;20261;-69
2024/01/31 05:27:59;;;;;;;1999.90;999.90;;;7.60;99.90;;;;;;5011995;28;20171;-69
2024/01/31 05:30:25;;;;;;;1999.90;999.90;;;7.40;99.90;;;;;;5012482;28;20201;-69
2024/01/31 05:32:50;;;;;;;1999.90;999.90;;;7.70;99.90;;;;;;5012655;28;20273;-69
2024/01/31 05:35:16;;;;;;;1999.90;999.90;;;7.50;99.90;;;;;;5012560;28;20581;-69
2024/01/31 05:37:41;;;;;;;1999.90;999.90;;;7.50;99.90;;;;;;5011799;28;20165;-70
2024/01/31 05:40:09;;;;;;;1999.90;999.90;;;7.40;99.90;;;;;;5012324;28;20317;-70
2024/01/31 05:42:34;;;;;;;1999.90;999.90;;;7.20;99.90;;;;;;5012121;28;20486;-69
2024/01/31 05:45:00;;;;;;;1999.90;999.90;;;7.40;99.90;;;;;;5012450;28;20409;-69
2024/01/31 05:47:25;;;;;;;1999.90;999.90;;;8.20;99.90;;;;;;5011719;28;20173;-69
2024/01/31 05:49:51;;;;;;;1999.90;999.90;;;7.70;99.90;;;;;;5012214;28;20174;-70
2024/01/31 05:52:16;;;;;;;1999.90;999.90;;;7.50;99.90;;;;;;5012784;28;20200;-70
2024/01/31 05:54:42;;;;;;;1999.90;999.90;;;7.60;99.90;;;;;;5013653;28;20247;-70
2024/01/31 05:57:08;;;;;;;1999.90;999.90;;;8.20;99.90;;;;;;5012381;28;20200;-70
2024/01/31 05:59:38;;;;;;;1999.90;999.90;;;7.50;99.90;;;;;;5012900;28;20168;-69
2024/01/31 06:02:03;;;;;;;1999.90;999.90;;;7.90;99.90;;;;;;5012015;28;20752;-70
2024/01/31 06:04:29;;;;;;;1999.90;999.90;;;8.20;99.90;;;;;;5013215;28;20440;-70
2024/01/31 06:06:54;;;;;;;1999.90;999.90;;;7.70;99.90;;;;;;5012276;28;20827;-69
2024/01/31 06:09:20;;;;;;;1999.90;999.90;;;7.60;99.90;;;;;;5012153;28;20182;-69
2024/01/31 06:11:46;;;;;;;1999.90;999.90;;;7.80;99.90;;;;;;5012044;28;20570;-70
2024/01/31 06:14:11;;;;;;;1999.90;999.90;;;7.70;99.90;;;;;;5011898;28;20243;-69
2024/01/31 06:16:37;;;;;;;1999.90;999.90;;;7.70;99.90;;;;;;5011372;28;20203;-69
2024/01/31 06:19:03;;;;;;;1999.90;999.90;;;7.70;99.90;;;;;;5011687;28;20225;-69
2024/01/31 06:21:29;;;;;;;1999.90;999.90;;;7.80;99.90;;;;;;5011560;28;20242;-70
2024/01/31 06:23:55;;;;;;;1999.90;999.90;;;8.10;99.90;;;;;;5011769;28;20547;-69
2024/01/31 06:26:22;;;;;;;1999.90;999.90;;;7.70;99.90;;;;;;5011727;28;20208;-69
2024/01/31 06:28:48;;;;;;;1999.90;999.90;;;8.20;99.90;;;;;;5011214;28;20405;-68
2024/01/31 06:31:24;;;;;;;1999.90;999.90;;;7.80;99.90;;;;;;5011726;28;20444;-69
2024/01/31 06:33:49;;;;;;;1999.90;999.90;;;7.80;99.90;;;;;;5013621;28;20554;-70
2024/01/31 06:36:15;;;;;;;1999.90;999.90;;;7.80;99.90;;;;;;5013331;28;20471;-70
2024/01/31 06:38:41;;;;;;;1999.90;999.90;;;7.90;99.90;;;;;;5012861;28;20174;-70
2024/01/31 06:41:07;;;;;;;1999.90;999.90;;;8.20;99.90;;;;;;5012592;28;20492;-70
2024/01/31 06:43:33;;;;;;;1999.90;999.90;;;8.50;99.90;;;;;;5012955;28;20189;-70
2024/01/31 06:45:58;;;;;;;1999.90;999.90;;;8.10;99.90;;;;;;5012899;28;20567;-70
2024/01/31 06:48:24;;;;;;;1999.90;999.90;;;8.00;99.90;;;;;;5013082;28;20557;-69
2024/01/31 06:50:50;;;;;;;1999.90;999.90;;;8.60;99.90;;;;;;5013003;28;20698;-69
2024/01/31 06:53:16;;;;;;;1999.90;999.90;;;7.90;99.90;;;;;;5012538;28;20255;-69
2024/01/31 06:55:41;;;;;;;1999.90;999.90;;;7.90;99.90;;;;;;5012234;28;20411;-67
2024/01/31 06:58:07;;;;;;;1999.90;999.90;;;7.90;99.90;;;;;;5010907;28;20199;-67
2024/01/31 07:00:32;;;;;;;1999.90;999.90;;;8.20;99.90;;;;;;5011336;28;20200;-68
2024/01/31 07:02:58;;;;;;;1999.90;999.90;;;7.90;99.90;;;;;;5011969;28;20708;-69
2024/01/31 07:05:24;;;;;;;1999.90;999.90;;;8.10;99.90;;;;;;5013462;28;20174;-69
2024/01/31 07:07:50;;;;;;;1999.90;999.90;;;8.40;99.90;;;;;;5012824;28;20176;-69
2024/01/31 07:10:16;;;;;;;1999.90;999.90;;;7.90;99.90;;;;;;5012433;28;20167;-68
2024/01/31 07:12:41;;;;;;;1999.90;999.90;;;7.90;99.90;;;;;;5012284;28;20430;-69
2024/01/31 07:15:07;;;;;;;1999.90;999.90;;;7.80;99.90;;;;;;5015176;28;20411;-68
2024/01/31 07:17:33;;;;;;;1999.90;999.90;;;7.70;99.90;;;;;;5014487;28;20213;-68
2024/01/31 07:19:58;;;;;;;1999.90;999.90;;;7.90;99.90;;;;;;5015323;28;20443;-68
2024/01/31 07:22:24;;;;;;;1999.90;999.90;;;8.10;99.90;;;;;;5016294;28;20555;-70
2024/01/31 07:24:50;;;;;;;1999.90;999.90;;;7.80;99.90;;;;;;5016712;28;20174;-69
2024/01/31 07:27:15;;;;;;;1999.90;999.90;;;7.90;99.90;;;;;;5017015;28;20166;-69
2024/01/31 07:29:46;;;;;;;1999.90;999.90;;;7.90;99.90;;;;;;5017647;28;20169;-68
2024/01/31 07:32:11;;;;;;;1999.90;999.90;;;8.30;99.90;;;;;;5018098;28;20193;-69
2024/01/31 07:34:37;;;;;;;1999.90;999.90;;;8.10;99.90;;;;;;5016830;28;21006;-69
2024/01/31 07:37:04;;;;;;;1999.90;999.90;;;7.80;99.90;;;;;;5014023;28;20177;-68
2024/01/31 07:39:30;;;;;;;1999.90;999.90;;;7.60;99.90;;;;;;5014850;28;20182;-69
2024/01/31 07:41:55;;;;;;;1999.90;999.90;;;7.60;99.90;;;;;;5014376;28;20537;-68
2024/01/31 07:44:21;;;;;;;1999.90;999.90;;;7.70;99.90;;;;;;5014673;28;20174;-69
2024/01/31 07:46:47;;;;;;;1999.90;999.90;;;7.80;99.90;;;;;;5013825;28;20169;-69
2024/01/31 07:49:12;;;;;;;1999.90;999.90;;;7.50;99.90;;;;;;5014449;28;20228;-69
2024/01/31 07:51:42;;;;;;;1999.90;999.90;;;7.50;99.90;;;;;;5014365;28;20224;-68
2024/01/31 07:54:07;;;;;;;1999.90;999.90;;;7.50;99.90;;;;;;5014580;28;20177;-69
2024/01/31 07:56:33;;;;;;;1999.90;999.90;;;8.00;99.90;;;;;;5013776;28;20411;-68
2024/01/31 07:58:59;;;;;;;1999.90;999.90;;;7.40;99.90;;;;;;5014180;28;20208;-67
2024/01/31 08:01:24;;;;;;;1999.90;999.90;;;7.40;99.90;;;;;;5013970;28;20228;-68
2024/01/31 08:03:50;;;;;;;1999.90;999.90;;;7.40;99.90;;;;;;5014047;28;20165;-68
2024/01/31 08:06:15;;;;;;;1999.90;999.90;;;7.40;99.90;;;;;;5014191;28;20679;-69
2024/01/31 08:08:45;;;;;;;1999.90;999.90;;;7.40;99.90;;;;;;5013583;28;20172;-69
2024/01/31 08:11:13;;;;;;;1999.90;999.90;;;7.50;99.90;;;;;;5014051;28;20248;-69
2024/01/31 08:13:39;;;;;;;1999.90;999.90;;;7.50;99.90;;;;;;5014022;28;20404;-69
2024/01/31 08:16:12;;;;;;;1999.90;999.90;;;7.60;99.90;;;;;;5014028;28;20408;-69
2024/01/31 08:18:38;;;;;;;1999.90;999.90;;;7.60;99.90;;;;;;5013488;28;20415;-68
2024/01/31 08:21:03;;;;;;;1999.90;999.90;;;7.70;99.90;;;;;;5013739;28;20429;-69
2024/01/31 08:23:29;;;;;;;1999.90;999.90;;;7.70;99.90;;;;;;5013333;28;20463;-69
2024/01/31 08:25:55;;;;;;;1999.90;999.90;;;8.30;99.90;;;;;;5013743;28;20658;-68
2024/01/31 08:28:21;;;;;;;1999.90;999.90;;;7.90;99.90;;;;;;5013143;28;20532;-69
2024/01/31 08:30:47;;;;;;;1999.90;999.90;;;7.90;99.90;;;;;;5013502;28;20433;-68
2024/01/31 08:33:12;;;;;;;1999.90;999.90;;;8.00;99.90;;;;;;5013586;28;20181;-68
2024/01/31 08:35:38;;;;;;;1999.90;999.90;;;8.00;99.90;;;;;;5013627;28;20187;-68
2024/01/31 08:38:03;;;;;;;1999.90;999.90;;;8.10;99.90;;;;;;5012901;28;20180;-68
2024/01/31 08:40:29;;;;;;;1999.90;999.90;;;8.00;99.90;;;;;;5013514;28;20182;-68
2024/01/31 08:42:58;;;;;;;1999.90;999.90;;;8.00;99.90;;;;;;5013312;28;20460;-68
2024/01/31 08:45:24;;;;;;;1999.90;999.90;;;8.20;99.90;;;;;;5013318;28;20181;-68
2024/01/31 08:47:50;;;;;;;1999.90;999.90;;;8.70;99.90;;;;;;5012885;28;20409;-68
2024/01/31 08:50:15;;;;;;;1999.90;999.90;;;8.20;99.90;;;;;;5013310;28;20405;-68
2024/01/31 08:52:41;;;;;;;1999.90;999.90;;;8.20;99.90;;;;;;5013129;28;20189;-68
2024/01/31 08:55:07;;;;;;;1999.90;999.90;;;8.20;99.90;;;;;;5013192;28;20263;-69
2024/01/31 08:57:33;;;;;;;1999.90;999.90;;;8.20;99.90;;;;;;5012454;28;20660;-69
2024/01/31 08:59:58;;;;;;;1999.90;999.90;;;8.60;99.90;;;;;;5013024;28;20415;-69
2024/01/31 09:02:24;;;;;;;1999.90;999.90;;;8.90;99.90;;;;;;5012819;28;20247;-69
2024/01/31 09:04:49;;;;;;;1999.90;999.90;;;8.40;99.90;;;;;;5013011;28;20667;-69
2024/01/31 09:07:15;;;;;;;1999.90;999.90;;;8.30;99.90;;;;;;5012350;28;20605;-69
2024/01/31 09:09:41;;;;;;;1999.90;999.90;;;8.30;99.90;;;;;;5012895;28;20183;-68
2024/01/31 09:12:07;;;;;;;1999.90;999.90;;;8.60;99.90;;;;;;5012810;28;20190;-69
2024/01/31 09:14:33;;;;;;;1999.90;999.90;;;8.20;99.90;;;;;;5012812;28;20675;-69
2024/01/31 09:16:59;;;;;;;1999.90;999.90;;;8.90;99.90;;;;;;5012404;28;20411;-69
2024/01/31 09:19:25;;;;;;;1999.90;999.90;;;8.70;99.90;;;;;;5012875;28;20465;-69
2024/01/31 09:21:51;;;;;;;1999.90;999.90;;;8.70;99.90;;;;;;5029933;28;20735;-68
2024/01/31 09:24:16;;;;;;;1999.90;999.90;;;8.50;99.90;;;;;;5032205;28;20178;-67
2024/01/31 09:26:42;;;;;;;1999.90;999.90;;;8.50;99.90;;;;;;5031792;28;20498;-68
2024/01/31 09:29:07;;;;;;;1999.90;999.90;;;8.60;99.90;;;;;;5032300;28;20179;-68
2024/01/31 09:31:33;;;;;;;1999.90;999.90;;;9.10;99.90;;;;;;5032239;28;20196;-68
2024/01/31 09:33:58;;;;;;;1999.90;999.90;;;9.10;99.90;;;;;;5032205;28;20535;-68
2024/01/31 09:36:24;;;;;;;1999.90;999.90;;;8.50;99.90;;;;;;5031429;28;20258;-68
2024/01/31 09:38:50;;;;;;;1999.90;999.90;;;9.20;99.90;;;;;;5017068;28;20178;-68
2024/01/31 09:41:16;;;;;;;1999.90;999.90;;;9.30;99.90;;;;;;5011848;28;20214;-68
2024/01/31 09:43:44;;;;;;;1999.90;999.90;;;9.00;99.90;;;;;;5011950;28;20170;-68
2024/01/31 09:46:09;;;;;;;1999.90;999.90;;;9.10;99.90;;;;;;5011786;28;20403;-68
2024/01/31 09:48:38;;;;;;;1999.90;999.90;;;8.70;99.90;;;;;;5010388;28;20411;-68
2024/01/31 09:51:04;;;;;;;1999.90;999.90;;;9.10;99.90;;;;;;5012095;28;20269;-68
2024/01/31 09:53:36;;;;;;;1999.90;999.90;;;8.30;99.90;;;;;;5011585;28;20435;-68
2024/01/31 09:56:03;;;;;;;1999.90;999.90;;;8.60;99.90;;;;;;5012034;28;20779;-68
2024/01/31 09:58:29;;;;;;;1999.90;999.90;;;8.40;99.90;;;;;;5011261;28;20420;-67
2024/01/31 10:00:55;;;;;;;1999.90;999.90;;;8.70;99.90;;;;;;5011333;28;20780;-68
2024/01/31 10:03:20;;;;;;;1999.90;999.90;;;9.30;99.90;;;;;;5009324;28;20214;-68
2024/01/31 10:05:46;;;;;;;1999.90;999.90;;;8.80;99.90;;;;;;5011481;28;20761;-66
2024/01/31 10:08:12;;;;;;;1999.90;999.90;;;9.00;99.90;;;;;;5010381;28;20178;-67
2024/01/31 10:10:37;;;;;;;1999.90;999.90;;;9.10;99.90;;;;;;5011681;28;20190;-67
2024/01/31 10:13:06;;;;;;;1999.90;999.90;;;8.60;99.90;;;;;;5017013;28;20245;-67
2024/01/31 10:15:31;;;;;;;1999.90;999.90;;;8.40;99.90;;;;;;4998014;28;20289;-67
2024/01/31 10:17:58;;;;;;;1999.90;999.90;;;8.70;99.90;;;;;;5002252;28;20497;-67
2024/01/31 10:20:24;;;;;;;1999.90;999.90;;;9.10;99.90;;;;;;5009478;28;20184;-67
2024/01/31 10:22:50;;;;;;;1999.90;999.90;;;9.10;99.90;;;;;;5010859;28;20867;-67
2024/01/31 10:25:18;;;;;;;1999.90;999.90;;;8.70;99.90;;;;;;5011056;28;20424;-67
2024/01/31 10:27:47;;;;;;;1999.90;999.90;;;9.20;99.90;;;;;;5010774;28;20181;-67
2024/01/31 10:30:14;;;;;;;1999.90;999.90;;;9.20;72.30;;;;;;5010971;28;20421;-67
2024/01/31 10:32:43;;;;;;;1999.90;999.90;;;8.40;25.80;;;;;;5010971;28;20434;-67
2024/01/31 10:35:11;;;;;;;1999.90;999.90;;;9.20;1.00;;;;;;5011062;28;20420;-67
2024/01/31 10:37:37;;;;;;;1999.90;999.90;;;9.10;1.00;;;;;;5009954;28;20475;-67
2024/01/31 10:40:05;;;;;;;1999.90;999.90;;;9.20;1.00;;;;;;5010352;28;20893;-67
2024/01/31 10:42:31;;;;;;;1999.90;999.90;;;8.50;99.90;;;;;;5010638;28;20198;-67
2024/01/31 10:44:58;;;;;;;1999.90;999.90;;;9.00;99.90;;;;;;5010929;28;20415;-67
2024/01/31 10:47:23;;;;;;;1999.90;999.90;;;9.30;48.00;;;;;;5012477;28;20251;-67
2024/01/31 10:49:49;;;;;;;1999.90;999.90;;;9.10;1.00;;;;;;5015238;28;20514;-67
2024/01/31 10:52:20;;;;;;;1999.90;999.90;;;9.00;1.00;;;;;;5013717;28;20204;-67
2024/01/31 10:54:59;;;;;;;1999.90;999.90;;;9.30;68.40;;;;;;5015314;28;20202;-68
2024/01/31 10:57:26;;;;;;;1999.90;999.90;;;9.40;1.00;;;;;;5016924;28;20458;-67
2024/01/31 10:59:53;;;;;;;1999.90;999.90;;;;;;;;;;5051126;22;20425;-67
2024/01/31 11:02:18;;;;;;;1999.90;999.90;;;8.70;99.90;;;;;;5010468;28;20480;-66
2024/01/31 11:04:45;;;;;;;1999.90;999.90;;;9.50;99.90;;;;;;5014968;28;20834;-66
2024/01/31 11:07:20;;;;;;;1999.90;999.90;;;9.40;99.90;;;;;;5013571;28;20406;-67
2024/01/31 11:09:49;;;;;;;1999.90;999.90;;;8.90;99.90;;;;;;5014649;28;20500;-67
2024/01/31 11:12:15;;;;;;;1999.90;999.90;;;9.00;99.90;;;;;;5013078;28;20923;-67
2024/01/31 11:14:43;;;;;;;1999.90;999.90;;;9.30;99.90;;;;;;5014633;28;20907;-67
2024/01/31 11:17:10;;;;;;;1999.90;999.90;;;9.50;91.60;;;;;;5014164;28;20433;-67
2024/01/31 11:19:52;;;;;;;1999.90;999.90;;;9.20;1.00;;;;;;5014695;28;20417;-67
2024/01/31 11:22:19;;;;;;;1999.90;999.90;;;8.50;99.90;;;;;;5012005;28;20550;-66
2024/01/31 11:24:46;;;;;;;1999.90;999.90;;;9.20;1.00;;;;;;5014033;28;20807;-67
2024/01/31 11:27:16;;;;;;;1999.90;999.90;;;9.30;1.00;;;;;;5013587;28;20490;-66
2024/01/31 11:29:43;;;;;;;1999.90;999.90;;;8.60;1.00;;;;;;5013800;28;20442;-66
2024/01/31 11:32:09;;;;;;;1999.90;999.90;;;9.00;99.90;;;;;;5012278;28;20441;-66
2024/01/31 11:34:39;;;;;;;1999.90;999.90;;;9.20;1.00;;;;;;5014207;28;20973;-67
2024/01/31 11:37:05;;;;;;;1999.90;999.90;;;8.80;1.00;;;;;;5012859;28;20834;-67
2024/01/31 11:39:30;;;;;;;1999.90;999.90;;;9.60;99.90;;;;;;5012846;28;20413;-67
2024/01/31 11:41:56;;;;;;;1999.90;999.90;;;9.00;1.00;;;;;;5012765;28;20206;-66
2024/01/31 11:44:22;;;;;;;1999.90;999.90;;;9.50;99.90;;;;;;5013540;28;20562;-67
2024/01/31 11:46:48;;;;;;;1999.90;999.90;;;9.40;99.90;;;;;;5013474;28;20184;-66
2024/01/31 11:49:13;;;;;;;1999.90;999.90;;;9.10;1.00;;;;;;5014309;28;20469;-68
2024/01/31 11:51:39;;;;;;;1999.90;999.90;;;9.60;99.90;;;;;;5012523;28;20195;-68
2024/01/31 11:54:05;;;;;;;1999.90;999.90;;;9.60;99.90;;;;;;5014132;28;20198;-67
2024/01/31 11:56:31;;;;;;;1999.90;999.90;;;9.60;1.00;;;;;;5013927;28;20256;-66
2024/01/31 11:58:59;;;;;;;1999.90;999.90;;;9.50;99.90;;;;;;5014521;28;20172;-67
2024/01/31 12:01:26;;;;;;;1999.90;999.90;;;9.20;99.90;;;;;;5011988;28;20472;-66
2024/01/31 12:03:51;;;;;;;1999.90;999.90;;;9.10;99.90;;;;;;5013870;28;20564;-67